createdAt,value
2023-05-08T00:00:55.959Z,-2.90
2023-05-08T00:05:51.021Z,-2.70
2023-05-08T00:10:51.012Z,-2.60
2023-05-08T00:15:51.048Z,-2.40
2023-05-08T00:20:50.990Z,-2.10
2023-05-08T00:25:51.021Z,-2.00
2023-05-08T00:30:51.394Z,-1.90
2023-05-08T00:35:57.885Z,-1.80
2023-05-08T00:40:51.002Z,-1.70
2023-05-08T00:50:52.414Z,-2.00
2023-05-08T00:55:51.713Z,-2.10
2023-05-08T01:00:54.449Z,-2.00
2023-05-08T01:05:51.097Z,-2.10
2023-05-08T01:11:10.483Z,-2.00
2023-05-08T01:21:02.001Z,-2.20
2023-05-08T01:26:04.377Z,-2.30
2023-05-08T01:31:01.870Z,-2.10
2023-05-08T01:35:57.869Z,-1.90
2023-05-08T01:55:55.810Z,-2.00
2023-05-08T02:00:52.723Z,-2.10
2023-05-08T02:05:54.022Z,-2.00
2023-05-08T02:10:52.732Z,-1.90
2023-05-08T02:15:53.433Z,-1.80
2023-05-08T02:25:52.347Z,-1.90
2023-05-08T02:30:52.163Z,-2.10
2023-05-08T02:35:54.432Z,-2.20
2023-05-08T02:46:08.564Z,-2.30
2023-05-08T02:50:59.521Z,-2.10
2023-05-08T02:55:56.943Z,-2.00
2023-05-08T03:01:05.570Z,-2.10
2023-05-08T03:05:55.110Z,-2.20
2023-05-08T03:20:55.195Z,-2.30
2023-05-08T03:25:52.647Z,-2.20
2023-05-08T03:30:52.223Z,-2.30
2023-05-08T03:35:52.839Z,-2.40
2023-05-08T03:55:51.610Z,-2.60
2023-05-08T04:06:01.880Z,-2.80
2023-05-08T04:11:02.084Z,-2.70
2023-05-08T04:20:54.654Z,-2.80
2023-05-08T04:25:53.199Z,-2.90
2023-05-08T04:30:52.010Z,-2.80
2023-05-08T04:55:51.778Z,-2.90
2023-05-08T05:05:58.052Z,-3.00
2023-05-08T05:10:51.936Z,-3.10
2023-05-08T05:15:53.374Z,-3.20
2023-05-08T05:20:51.798Z,-3.10
2023-05-08T05:25:52.167Z,-3.30
2023-05-08T05:30:52.130Z,-3.40
2023-05-08T05:35:51.856Z,-3.60
2023-05-08T05:40:51.837Z,-3.50
2023-05-08T05:45:51.861Z,-3.40
2023-05-08T05:50:51.820Z,-3.10
2023-05-08T05:55:52.034Z,-3.00
2023-05-08T06:00:51.877Z,-2.90
2023-05-08T06:05:51.906Z,-2.80
2023-05-08T06:15:55.373Z,-2.70
2023-05-08T06:20:59.386Z,-2.40
2023-05-08T06:25:52.839Z,-2.30
2023-05-08T06:30:53.109Z,-2.20
2023-05-08T06:35:51.950Z,-2.30
2023-05-08T06:45:52.085Z,-2.50
2023-05-08T06:50:52.000Z,-2.60
2023-05-08T06:55:52.116Z,-2.70
2023-05-08T07:00:52.081Z,-2.80
2023-05-08T07:05:52.510Z,-2.90
2023-05-08T07:15:52.205Z,-2.80
2023-05-08T07:20:52.373Z,-3.00
2023-05-08T07:25:52.181Z,-3.30
2023-05-08T07:30:52.125Z,-3.50
2023-05-08T07:35:52.634Z,-3.70
2023-05-08T07:40:55.920Z,-3.80
2023-05-08T07:45:52.225Z,-3.50
2023-05-08T07:50:52.209Z,-3.60
2023-05-08T07:55:52.232Z,-3.70
2023-05-08T08:00:52.772Z,-3.90
2023-05-08T08:05:52.168Z,-3.70
2023-05-08T08:20:52.249Z,-3.90
2023-05-08T08:30:52.270Z,-3.80
2023-05-08T08:35:52.296Z,-3.90
2023-05-08T08:40:53.197Z,-4.10
2023-05-08T08:45:52.359Z,-4.20
2023-05-08T08:51:01.360Z,-4.00
2023-05-08T08:55:55.972Z,-4.40
2023-05-08T09:00:55.082Z,-4.60
2023-05-08T09:05:53.590Z,-5.50
2023-05-08T09:10:54.781Z,-5.80
2023-05-08T09:15:52.489Z,-6.20
2023-05-08T09:20:52.771Z,-6.10
2023-05-08T09:25:52.969Z,-5.90
2023-05-08T09:30:53.792Z,-5.70
2023-05-08T09:35:53.762Z,-6.40
2023-05-08T09:41:06.780Z,-6.90
2023-05-08T09:51:06.087Z,-6.00
2023-05-08T09:55:52.542Z,-5.90
2023-05-08T10:00:52.577Z,-5.70
2023-05-08T10:10:52.540Z,-5.60
2023-05-08T10:15:53.668Z,-5.20
2023-05-08T10:20:55.824Z,-5.30
2023-05-08T10:30:56.703Z,-5.70
2023-05-08T10:35:52.624Z,-7.00
2023-05-08T10:40:56.889Z,-8.10
2023-05-08T10:45:54.383Z,-8.00
2023-05-08T10:50:55.483Z,-7.70
2023-05-08T10:55:54.611Z,-7.40
2023-05-08T11:00:52.828Z,-7.90
2023-05-08T11:05:54.233Z,-8.80
2023-05-08T11:11:03.940Z,-8.20
2023-05-08T11:15:52.801Z,-7.90
2023-05-08T11:20:56.492Z,-7.10
2023-05-08T11:26:03.778Z,-7.30
2023-05-08T11:30:55.443Z,-7.90
2023-05-08T11:36:07.553Z,-8.60
2023-05-08T11:40:55.503Z,-9.30
2023-05-08T11:45:53.927Z,-9.00
2023-05-08T11:50:54.348Z,-8.60
2023-05-08T11:55:53.684Z,-7.80
2023-05-08T12:00:53.525Z,-7.90
2023-05-08T12:05:57.748Z,-8.50
2023-05-08T12:10:55.498Z,-8.80
2023-05-08T12:15:55.931Z,-8.90
2023-05-08T12:20:55.956Z,-8.60
2023-05-08T12:25:55.191Z,-8.50
2023-05-08T12:30:54.736Z,-7.90
2023-05-08T12:35:53.967Z,-8.30
2023-05-08T12:40:54.640Z,-7.80
2023-05-08T12:45:52.963Z,-8.00
2023-05-08T12:55:54.847Z,-8.40
2023-05-08T13:01:03.656Z,-8.20
2023-05-08T13:05:56.489Z,-9.00
2023-05-08T13:10:54.922Z,-8.80
2023-05-08T13:15:54.299Z,-8.50
2023-05-08T13:20:54.049Z,-8.20
2023-05-08T13:25:53.093Z,-8.80
2023-05-08T13:30:53.067Z,-8.20
2023-05-08T13:35:53.283Z,-7.80
2023-05-08T13:40:53.063Z,-7.40
2023-05-08T13:45:53.227Z,-6.40
2023-05-08T13:50:53.250Z,-6.20
2023-05-08T13:55:53.141Z,-6.60
2023-05-08T14:00:53.174Z,-6.80
2023-05-08T14:05:53.159Z,-6.90
2023-05-08T14:10:53.377Z,-6.00
2023-05-08T14:15:53.287Z,-6.20
2023-05-08T14:20:57.271Z,-5.90
2023-05-08T14:25:53.214Z,-5.80
2023-05-08T14:30:53.189Z,-5.40
2023-05-08T14:35:53.276Z,-5.20
2023-05-08T14:40:53.412Z,-5.40
2023-05-08T14:45:53.340Z,-5.90
2023-05-08T14:50:53.425Z,-5.60
2023-05-08T14:55:53.483Z,-5.30
2023-05-08T15:00:53.321Z,-5.90
2023-05-08T15:05:53.467Z,-5.80
2023-05-08T15:10:53.313Z,-5.90
2023-05-08T15:15:53.508Z,-6.20
2023-05-08T15:20:53.537Z,-5.80
2023-05-08T15:30:53.409Z,-5.90
2023-05-08T15:35:53.439Z,-5.70
2023-05-08T15:45:53.570Z,-6.00
2023-05-08T15:50:53.555Z,-6.10
2023-05-08T15:55:55.844Z,-5.60
2023-05-08T16:00:53.662Z,-5.30
2023-05-08T16:04:45.027Z,-5.30
2023-05-08T16:05:53.457Z,-5.20
2023-05-08T16:10:23.733Z,-5.20
2023-05-08T16:17:58.099Z,-5.50
2023-05-08T16:20:53.548Z,-5.40
2023-05-08T16:25:53.616Z,-5.30
2023-05-08T16:35:53.787Z,-5.20
2023-05-08T16:40:53.546Z,-5.30
2023-05-08T16:45:53.691Z,-5.20
2023-05-08T16:58:03.594Z,-5.40
2023-05-08T16:58:05.920Z,-5.40
2023-05-08T16:58:06.657Z,-5.40
2023-05-08T17:00:53.761Z,-5.30
2023-05-08T17:05:53.794Z,-5.40
2023-05-08T17:10:53.749Z,-5.20
2023-05-08T17:20:53.691Z,-5.10
2023-05-08T17:30:54.084Z,-4.90
2023-05-08T17:35:53.841Z,-4.80
2023-05-08T17:40:55.330Z,-4.60
2023-05-08T17:45:53.814Z,-4.90
2023-05-08T17:50:53.809Z,-4.60
2023-05-08T17:55:53.854Z,-4.70
2023-05-08T18:00:54.889Z,-4.60
2023-05-08T18:10:53.866Z,-4.70
2023-05-08T18:15:53.855Z,-5.00
2023-05-08T18:20:53.945Z,-4.60
2023-05-08T18:30:54.211Z,-4.50
2023-05-08T18:35:54.712Z,-4.20
2023-05-08T18:40:53.936Z,-4.10
2023-05-08T18:45:53.950Z,-4.00
2023-05-08T18:50:57.357Z,-3.70
2023-05-08T18:55:53.942Z,-3.60
2023-05-08T19:10:54.053Z,-3.70
2023-05-08T19:15:54.027Z,-3.60
2023-05-08T19:25:54.020Z,-3.50
2023-05-08T19:40:57.584Z,-3.40
2023-05-08T19:50:55.034Z,-3.30
2023-05-08T19:55:54.084Z,-3.50
2023-05-08T20:05:54.120Z,-3.80
2023-05-08T20:10:54.167Z,-3.50
2023-05-08T20:15:54.261Z,-3.70
2023-05-08T20:20:54.181Z,-3.50
2023-05-08T20:25:54.310Z,-3.60
2023-05-08T20:30:54.365Z,-3.80
2023-05-08T20:32:31.982Z,-3.80
2023-05-08T20:35:54.397Z,-3.70
2023-05-08T20:45:54.256Z,-3.80
2023-05-08T20:50:54.237Z,-3.70
2023-05-08T20:56:04.624Z,-3.90
2023-05-08T21:00:58.599Z,-3.80
2023-05-08T21:10:54.384Z,-3.60
2023-05-08T21:15:54.331Z,-3.50
2023-05-08T21:30:54.377Z,-3.40
2023-05-08T21:35:54.429Z,-3.60
2023-05-08T21:40:54.718Z,-3.70
2023-05-08T21:45:54.468Z,-3.80
2023-05-08T22:05:54.592Z,-4.00
2023-05-08T22:10:55.050Z,-3.90
2023-05-08T22:15:54.530Z,-4.00
2023-05-08T22:20:55.186Z,-3.90
2023-05-08T22:30:55.169Z,-3.80
2023-05-08T22:35:54.617Z,-3.90
2023-05-08T22:50:54.718Z,-3.80
2023-05-08T22:55:54.883Z,-3.90
2023-05-08T23:00:56.188Z,-3.80
2023-05-08T23:10:54.799Z,-3.70
2023-05-08T23:15:54.624Z,-3.80
2023-05-08T23:20:54.640Z,-3.70
2023-05-08T23:25:54.778Z,-3.60
2023-05-08T23:30:54.678Z,-3.50
2023-05-08T23:35:55.081Z,-3.70
2023-05-08T23:40:54.721Z,-3.60
2023-05-08T23:45:54.669Z,-3.70
2023-05-08T23:50:54.691Z,-3.60
2023-05-08T23:55:55.226Z,-3.70
